Zim Rio Grande — 9HNV9 — position and weather

sailwx.info

Track history (hours):
 
Tides and Currents Weather Stations Pressure Air Temp Water Temp Dewpoint Dewpoint Depression Visibility Wind Speed Wind Dir Waves Ship Positions

Zim Rio Grande

Last reported at 2015-Jun-18 08:33 UTC. Time now 2015-Jul-03 20:16 UTC.
Position N 34°57' E 026°52'.
Warning: this ship's position is 15 days out of date.

Length 260 m; draft 11.8 m.

Type: Ship (hazmat cat A). MMSI: 249253000.

Date/timePositionNaut miles runAvg speedWind from/ knotsBaromVisibWave heightAir tempDewpointWater temp
2015-Jun-18 08:33N 34°57' E 026°52'1918.6
2015-Jun-18 07:33N 35°13' E 026°41'2118.0
2015-Jun-18 06:23N 35°26' E 026°21'1518.5
2015-Jun-18 05:33N 35°35' E 026°06'1918.4
2015-Jun-18 04:32N 35°46' E 025°47'2318.3
2015-Jun-18 03:18N 35°58' E 025°23'2118.3
2015-Jun-18 02:07N 36°10' E 025°02'8617.5
2015-Jun-17 21:12N 37°17' E 023°54'1218.3
2015-Jun-17 20:32N 37°28' E 023°47'1818.0
2015-Jun-17 19:34N 37°45' E 023°39'1312.7
2015-Jun-17 18:33N 37°57' E 023°35'1 0.5
2015-Jun-17 17:31N 37°57' E 023°35'0 0.0
2015-Jun-17 16:31N 37°57' E 023°35'0 0.0
2015-Jun-17 15:28N 37°57' E 023°35'0 0.0
2015-Jun-17 14:28N 37°57' E 023°35'0 0.0
2015-Jun-17 13:31N 37°57' E 023°35'0 0.0
2015-Jun-17 12:28N 37°57' E 023°35'0 0.0
2015-Jun-17 11:28N 37°57' E 023°35'0 0.0
2015-Jun-17 10:31N 37°57' E 023°35'0 0.0
2015-Jun-17 09:28N 37°57' E 023°35'0 0.0
2015-Jun-17 08:31N 37°57' E 023°35'0 0.0
2015-Jun-17 07:31N 37°57' E 023°35'0 0.0
2015-Jun-17 06:31N 37°57' E 023°35'0 0.0
2015-Jun-17 05:31N 37°57' E 023°35'0 0.0
2015-Jun-17 04:31N 37°57' E 023°35'0 0.0
2015-Jun-17 03:31N 37°57' E 023°35'0 0.0
2015-Jun-17 02:28N 37°57' E 023°35'0 0.0
2015-Jun-17 01:31N 37°57' E 023°35'0 0.0
2015-Jun-17 00:28N 37°57' E 023°35'0 0.0
2015-Jun-16 23:31N 37°57' E 023°35'0 0.0
2015-Jun-16 22:28N 37°57' E 023°35'0 0.0
2015-Jun-16 21:31N 37°57' E 023°35'0 0.0
2015-Jun-16 20:28N 37°57' E 023°35'0 0.0
2015-Jun-16 19:28N 37°57' E 023°35'0 0.0
2015-Jun-16 18:28N 37°57' E 023°35'0 0.0
2015-Jun-16 17:28N 37°57' E 023°35'0 0.0
2015-Jun-16 16:31N 37°57' E 023°35'0 0.0
2015-Jun-16 15:33N 37°57' E 023°35'0 0.0
2015-Jun-16 14:31N 37°57' E 023°35'0 0.0
2015-Jun-16 13:28N 37°57' E 023°35'0 0.0
2015-Jun-16 12:31N 37°57' E 023°35'0 0.0
2015-Jun-16 11:34N 37°57' E 023°35'0 0.0
2015-Jun-16 10:30N 37°57' E 023°35'0 0.0
2015-Jun-16 09:28N 37°57' E 023°35'0 0.0
2015-Jun-16 08:34N 37°57' E 023°35'0 0.0
2015-Jun-16 07:34N 37°57' E 023°35'0 0.0
2015-Jun-16 06:34N 37°57' E 023°35'0 0.0
2015-Jun-16 05:33N 37°57' E 023°35'0 0.2
2015-Jun-16 04:33N 37°57' E 023°35'4 3.7
2015-Jun-16 03:33N 37°54' E 023°37'5 5.4
2015-Jun-16 02:33N 37°49' E 023°41'1111.0
2015-Jun-16 01:34N 37°39' E 023°47'1616.0
2015-Jun-16 00:33N 37°33' E 024°05'3215.2
2015-Jun-15 22:25N 37°22' E 024°44'1415.8
2015-Jun-15 21:34N 37°18' E 025°00'1616.3
2015-Jun-15 20:34N 37°17' E 025°21'1616.0
2015-Jun-15 19:34N 37°15' E 025°41'1514.9
2015-Jun-15 18:33N 37°08' E 025°57'1616.2
2015-Jun-15 17:33N 36°57' E 026°13'1616.2
2015-Jun-15 16:33N 36°46' E 026°27'1815.9
2015-Jun-15 15:24N 36°33' E 026°44'1315.7
2015-Jun-15 14:33N 36°24' E 026°55'1615.8
2015-Jun-15 13:32N 36°13' E 027°10'1716.1
2015-Jun-15 12:29N 36°01' E 027°25'1516.3
2015-Jun-15 11:33N 35°51' E 027°38'1515.2
2015-Jun-15 10:33N 35°47' E 027°57'  
2015-Jun-09 23:10N 32°08' E 034°34'712.0
2015-Jun-09 22:33N 32°15' E 034°36'1212.1
2015-Jun-09 21:34N 32°27' E 034°40'1212.0
2015-Jun-09 20:33N 32°39' E 034°44'1212.1
2015-Jun-09 19:33N 32°50' E 034°48'11 2.6
2015-Jun-09 15:20N 32°49' E 035°01'0 0.0
2015-Jun-09 14:32N 32°49' E 035°01'0 0.0
2015-Jun-09 13:32N 32°49' E 035°01'0 0.0
2015-Jun-09 12:32N 32°49' E 035°01'0 0.0
2015-Jun-09 07:29N 32°49' E 035°01'5 0.6
2015-Jun-09 00:31N 32°52' E 034°57'9 7.1
2015-Jun-08 23:15N 32°54' E 034°46'811.8
2015-Jun-08 22:33N 32°55' E 034°37'1212.1
2015-Jun-08 21:33N 32°58' E 034°23'1010.4
2015-Jun-08 20:33N 32°56' E 034°11'1111.3
2015-Jun-08 19:33N 32°48' E 034°01'1111.2
2015-Jun-08 18:33N 32°40' E 033°51'1111.1
2015-Jun-08 17:33N 32°32' E 033°42'1110.9
2015-Jun-08 16:33N 32°25' E 033°33'1010.3
2015-Jun-08 15:33N 32°18' E 033°24'1110.9
2015-Jun-08 14:33N 32°10' E 033°14'1111.0
2015-Jun-08 13:33N 32°03' E 033°05'1111.4
2015-Jun-08 12:33N 31°55' E 032°55'1211.7
2015-Jun-08 11:33N 31°47' E 032°45'1211.9
2015-Jun-08 10:34N 31°41' E 032°33'1110.5
2015-Jun-08 09:33N 31°34' E 032°23'1211.7
2015-Jun-08 08:33N 31°22' E 032°23'  
Track history (hours):
 
Tides and Currents Weather Stations Pressure Air Temp Water Temp Dewpoint Dewpoint Depression Visibility Wind Speed Wind Dir Waves Ship Positions

Zim Rio Grande

Last reported at 2015-Jun-18 08:33 UTC. Time now 2015-Jul-03 20:16 UTC.
Position N 34°57' E 026°52'.
Warning: this ship's position is 15 days out of date.

Length 260 m; draft 11.8 m.

Type: Ship (hazmat cat A). MMSI: 249253000.

Date/timePositionNaut miles runAvg speedWind from/ knotsBaromVisibWave heightAir tempDewpointWater temp
2015-Jun-18 08:33N 34°57' E 026°52'1918.6
2015-Jun-18 07:33N 35°13' E 026°41'2118.0
2015-Jun-18 06:23N 35°26' E 026°21'1518.5
2015-Jun-18 05:33N 35°35' E 026°06'1918.4
2015-Jun-18 04:32N 35°46' E 025°47'2318.3
2015-Jun-18 03:18N 35°58' E 025°23'2118.3
2015-Jun-18 02:07N 36°10' E 025°02'8617.5
2015-Jun-17 21:12N 37°17' E 023°54'1218.3
2015-Jun-17 20:32N 37°28' E 023°47'1818.0
2015-Jun-17 19:34N 37°45' E 023°39'1312.7
2015-Jun-17 18:33N 37°57' E 023°35'1 0.5
2015-Jun-17 17:31N 37°57' E 023°35'0 0.0
2015-Jun-17 16:31N 37°57' E 023°35'0 0.0
2015-Jun-17 15:28N 37°57' E 023°35'0 0.0
2015-Jun-17 14:28N 37°57' E 023°35'0 0.0
2015-Jun-17 13:31N 37°57' E 023°35'0 0.0
2015-Jun-17 12:28N 37°57' E 023°35'0 0.0
2015-Jun-17 11:28N 37°57' E 023°35'0 0.0
2015-Jun-17 10:31N 37°57' E 023°35'0 0.0
2015-Jun-17 09:28N 37°57' E 023°35'0 0.0
2015-Jun-17 08:31N 37°57' E 023°35'0 0.0
2015-Jun-17 07:31N 37°57' E 023°35'0 0.0
2015-Jun-17 06:31N 37°57' E 023°35'0 0.0
2015-Jun-17 05:31N 37°57' E 023°35'0 0.0
2015-Jun-17 04:31N 37°57' E 023°35'0 0.0
2015-Jun-17 03:31N 37°57' E 023°35'0 0.0
2015-Jun-17 02:28N 37°57' E 023°35'0 0.0
2015-Jun-17 01:31N 37°57' E 023°35'0 0.0
2015-Jun-17 00:28N 37°57' E 023°35'0 0.0
2015-Jun-16 23:31N 37°57' E 023°35'0 0.0
2015-Jun-16 22:28N 37°57' E 023°35'0 0.0
2015-Jun-16 21:31N 37°57' E 023°35'0 0.0
2015-Jun-16 20:28N 37°57' E 023°35'0 0.0
2015-Jun-16 19:28N 37°57' E 023°35'0 0.0
2015-Jun-16 18:28N 37°57' E 023°35'0 0.0
2015-Jun-16 17:28N 37°57' E 023°35'0 0.0
2015-Jun-16 16:31N 37°57' E 023°35'0 0.0
2015-Jun-16 15:33N 37°57' E 023°35'0 0.0
2015-Jun-16 14:31N 37°57' E 023°35'0 0.0
2015-Jun-16 13:28N 37°57' E 023°35'0 0.0
2015-Jun-16 12:31N 37°57' E 023°35'0 0.0
2015-Jun-16 11:34N 37°57' E 023°35'0 0.0
2015-Jun-16 10:30N 37°57' E 023°35'0 0.0
2015-Jun-16 09:28N 37°57' E 023°35'0 0.0
2015-Jun-16 08:34N 37°57' E 023°35'0 0.0
2015-Jun-16 07:34N 37°57' E 023°35'0 0.0
2015-Jun-16 06:34N 37°57' E 023°35'0 0.0
2015-Jun-16 05:33N 37°57' E 023°35'0 0.2
2015-Jun-16 04:33N 37°57' E 023°35'4 3.7
2015-Jun-16 03:33N 37°54' E 023°37'5 5.4
2015-Jun-16 02:33N 37°49' E 023°41'1111.0
2015-Jun-16 01:34N 37°39' E 023°47'1616.0
2015-Jun-16 00:33N 37°33' E 024°05'3215.2
2015-Jun-15 22:25N 37°22' E 024°44'1415.8
2015-Jun-15 21:34N 37°18' E 025°00'1616.3
2015-Jun-15 20:34N 37°17' E 025°21'1616.0
2015-Jun-15 19:34N 37°15' E 025°41'1514.9
2015-Jun-15 18:33N 37°08' E 025°57'1616.2
2015-Jun-15 17:33N 36°57' E 026°13'1616.2
2015-Jun-15 16:33N 36°46' E 026°27'1815.9
2015-Jun-15 15:24N 36°33' E 026°44'1315.7
2015-Jun-15 14:33N 36°24' E 026°55'1615.8
2015-Jun-15 13:32N 36°13' E 027°10'1716.1
2015-Jun-15 12:29N 36°01' E 027°25'1516.3
2015-Jun-15 11:33N 35°51' E 027°38'1515.2
2015-Jun-15 10:33N 35°47' E 027°57'  
2015-Jun-09 23:10N 32°08' E 034°34'712.0
2015-Jun-09 22:33N 32°15' E 034°36'1212.1
2015-Jun-09 21:34N 32°27' E 034°40'1212.0
2015-Jun-09 20:33N 32°39' E 034°44'1212.1
2015-Jun-09 19:33N 32°50' E 034°48'11 2.6
2015-Jun-09 15:20N 32°49' E 035°01'0 0.0
2015-Jun-09 14:32N 32°49' E 035°01'0 0.0
2015-Jun-09 13:32N 32°49' E 035°01'0 0.0
2015-Jun-09 12:32N 32°49' E 035°01'0 0.0
2015-Jun-09 07:29N 32°49' E 035°01'5 0.6
2015-Jun-09 00:31N 32°52' E 034°57'9 7.1
2015-Jun-08 23:15N 32°54' E 034°46'811.8
2015-Jun-08 22:33N 32°55' E 034°37'1212.1
2015-Jun-08 21:33N 32°58' E 034°23'1010.4
2015-Jun-08 20:33N 32°56' E 034°11'1111.3
2015-Jun-08 19:33N 32°48' E 034°01'1111.2
2015-Jun-08 18:33N 32°40' E 033°51'1111.1
2015-Jun-08 17:33N 32°32' E 033°42'1110.9
2015-Jun-08 16:33N 32°25' E 033°33'1010.3
2015-Jun-08 15:33N 32°18' E 033°24'1110.9
2015-Jun-08 14:33N 32°10' E 033°14'1111.0
2015-Jun-08 13:33N 32°03' E 033°05'1111.4
2015-Jun-08 12:33N 31°55' E 032°55'1211.7
2015-Jun-08 11:33N 31°47' E 032°45'1211.9
2015-Jun-08 10:34N 31°41' E 032°33'1110.5
2015-Jun-08 09:33N 31°34' E 032°23'1211.7
2015-Jun-08 08:33N 31°22' E 032°23'  

Dump ship's entire track history